createdAt,value
2018-05-11T00:01:56.913Z,13.30
2018-05-11T00:07:00.396Z,13.30
2018-05-11T00:12:02.967Z,13.10
2018-05-11T00:17:05.557Z,12.80
2018-05-11T00:27:22.328Z,12.70
2018-05-11T00:32:24.842Z,12.70
2018-05-11T00:37:28.178Z,12.40
2018-05-11T00:42:30.773Z,12.40
2018-05-11T00:47:34.099Z,12.40
2018-05-11T00:52:36.679Z,12.30
2018-05-11T00:57:39.942Z,12.20
2018-05-11T01:02:42.588Z,12.10
2018-05-11T01:07:45.198Z,12.20
2018-05-11T01:12:47.724Z,12.00
2018-05-11T01:17:50.245Z,12.00
2018-05-11T01:22:53.536Z,11.80
2018-05-11T01:27:56.061Z,11.70
2018-05-11T01:32:59.340Z,11.70
2018-05-11T01:38:01.872Z,11.70
2018-05-11T01:43:05.168Z,11.60
2018-05-11T01:48:07.739Z,11.50
2018-05-11T01:53:10.291Z,11.60
2018-05-11T01:58:17.492Z,11.50
2018-05-11T02:03:20.025Z,11.60
2018-05-11T02:08:24.348Z,11.40
2018-05-11T02:13:26.901Z,11.40
2018-05-11T02:18:29.482Z,11.50
2018-05-11T02:23:32.817Z,11.30
2018-05-11T02:28:35.362Z,11.20
2018-05-11T02:33:37.908Z,11.20
2018-05-11T02:38:45.031Z,11.20
2018-05-11T02:43:47.603Z,11.20
2018-05-11T02:48:50.137Z,11.10
2018-05-11T02:53:53.588Z,11.00
2018-05-11T02:59:01.716Z,10.90
2018-05-11T03:04:06.284Z,10.80
2018-05-11T03:09:08.834Z,10.80
2018-05-11T03:14:12.340Z,10.60
2018-05-11T03:19:14.861Z,10.60
2018-05-11T03:24:17.380Z,10.50
2018-05-11T03:29:20.055Z,10.50
2018-05-11T03:34:22.613Z,10.40
2018-05-11T03:39:26.073Z,10.30
2018-05-11T03:44:28.618Z,10.30
2018-05-11T03:49:31.158Z,10.20
2018-05-11T03:54:33.690Z,10.30
2018-05-11T03:59:36.255Z,10.10
2018-05-11T04:04:51.220Z,10.10
2018-05-11T04:09:57.341Z,10.20
2018-05-11T04:15:00.335Z,10.30
2018-05-11T04:20:06.390Z,10.20
2018-05-11T04:25:09.688Z,10.20
2018-05-11T04:30:13.043Z,10.20
2018-05-11T04:35:15.993Z,10.10
2018-05-11T04:40:20.573Z,10.40
2018-05-11T04:45:23.768Z,10.50
2018-05-11T04:50:26.291Z,10.40
2018-05-11T04:55:28.816Z,10.50
2018-05-11T05:00:31.340Z,10.70
2018-05-11T05:05:34.629Z,11.00
2018-05-11T05:10:37.242Z,10.90
2018-05-11T05:15:40.532Z,11.40
2018-05-11T05:20:43.076Z,11.30
2018-05-11T05:25:45.627Z,11.50
2018-05-11T05:30:48.987Z,12.10
2018-05-11T05:35:51.560Z,12.10
2018-05-11T05:40:57.491Z,12.40
2018-05-11T05:46:00.029Z,12.50
2018-05-11T05:51:02.640Z,12.80
2018-05-11T05:56:06.098Z,13.20
2018-05-11T06:01:09.850Z,13.30
2018-05-11T06:06:17.201Z,13.20
2018-05-11T06:11:19.767Z,13.50
2018-05-11T06:16:22.397Z,13.70
2018-05-11T06:21:25.616Z,14.20
2018-05-11T06:26:28.184Z,14.30
2018-05-11T06:31:33.698Z,14.60
2018-05-11T06:36:37.477Z,15.00
2018-05-11T06:41:41.833Z,15.10
2018-05-11T06:46:46.502Z,15.40
2018-05-11T06:51:49.075Z,15.70
2018-05-11T06:56:51.686Z,15.70
2018-05-11T07:01:54.338Z,15.90
2018-05-11T07:06:57.001Z,16.00
2018-05-11T07:12:00.331Z,16.70
2018-05-11T07:17:02.924Z,16.70
2018-05-11T07:22:05.508Z,16.90
2018-05-11T07:27:08.896Z,17.40
2018-05-11T07:32:11.453Z,17.40
2018-05-11T07:37:14.013Z,17.40
2018-05-11T07:42:18.628Z,17.60
2018-05-11T07:47:24.623Z,17.90
2018-05-11T07:52:28.869Z,18.70
2018-05-11T07:57:31.410Z,18.60
2018-05-11T08:02:33.982Z,18.90
2018-05-11T08:07:36.577Z,19.00
2018-05-11T08:12:41.000Z,19.20
2018-05-11T08:17:43.667Z,19.60
2018-05-11T08:22:48.377Z,20.20
2018-05-11T08:27:52.881Z,20.20
2018-05-11T08:32:55.342Z,20.10
2018-05-11T08:37:58.663Z,20.70
2018-05-11T08:48:14.750Z,20.90
2018-05-11T08:53:18.915Z,21.30
2018-05-11T08:58:21.516Z,21.10
2018-05-11T09:03:24.920Z,21.90
2018-05-11T09:08:27.646Z,21.90
2018-05-11T09:13:34.057Z,22.20
2018-05-11T09:18:37.732Z,22.30
2018-05-11T09:23:40.400Z,22.10
2018-05-11T09:28:44.123Z,22.20
2018-05-11T09:33:46.729Z,22.30
2018-05-11T09:38:49.339Z,22.40
2018-05-11T09:43:52.728Z,22.90
2018-05-11T09:48:55.318Z,22.80
2018-05-11T09:53:57.883Z,23.00
2018-05-11T09:59:00.479Z,23.50
2018-05-11T10:04:03.083Z,24.50
2018-05-11T10:09:05.707Z,25.10
2018-05-11T10:14:08.318Z,24.80
2018-05-11T10:19:10.991Z,25.00
2018-05-11T10:24:14.411Z,24.90
2018-05-11T10:29:16.983Z,24.80
2018-05-11T10:34:19.571Z,25.40
2018-05-11T10:39:22.258Z,25.70
2018-05-11T10:44:24.955Z,25.60
2018-05-11T10:49:30.311Z,26.10
2018-05-11T10:54:32.917Z,26.20
2018-05-11T10:59:36.402Z,25.90
2018-05-11T11:04:38.976Z,25.30
2018-05-11T11:09:42.211Z,24.90
2018-05-11T11:14:44.755Z,25.00
2018-05-11T11:19:47.370Z,24.90
2018-05-11T11:24:49.975Z,24.50
2018-05-11T11:29:54.552Z,24.20
2018-05-11T11:34:58.060Z,24.30
2018-05-11T11:40:00.749Z,24.30
2018-05-11T11:45:07.421Z,25.80
2018-05-11T11:50:10.856Z,26.40
2018-05-11T11:55:14.629Z,25.70
2018-05-11T12:00:18.124Z,25.20
2018-05-11T12:05:20.723Z,25.10
2018-05-11T12:10:23.265Z,24.90
2018-05-11T12:15:26.652Z,24.50
2018-05-11T12:20:29.961Z,24.40
2018-05-11T12:25:36.387Z,24.40
2018-05-11T12:30:39.698Z,25.10
2018-05-11T12:35:43.019Z,24.90
2018-05-11T12:40:45.615Z,24.90
2018-05-11T12:45:49.119Z,24.80
2018-05-11T12:50:51.765Z,24.90
2018-05-11T12:55:56.365Z,25.10
2018-05-11T13:00:59.869Z,25.10
2018-05-11T13:06:02.442Z,25.00
2018-05-11T13:11:05.958Z,24.50
2018-05-11T13:16:08.478Z,24.80
2018-05-11T13:21:11.104Z,25.10
2018-05-11T13:26:17.221Z,25.00
2018-05-11T13:31:19.777Z,24.90
2018-05-11T13:36:32.769Z,25.10
2018-05-11T13:41:35.248Z,25.20
2018-05-11T13:46:37.852Z,25.30
2018-05-11T13:51:40.378Z,25.30
2018-05-11T13:56:42.891Z,24.50
2018-05-11T14:01:45.444Z,24.50
2018-05-11T14:06:49.647Z,24.50
2018-05-11T14:11:52.926Z,24.70
2018-05-11T14:16:55.431Z,24.70
2018-05-11T14:21:58.703Z,25.00
2018-05-11T14:27:01.218Z,25.00
2018-05-11T14:32:03.845Z,24.70
2018-05-11T14:37:06.995Z,24.70
2018-05-11T14:42:09.524Z,24.60
2018-05-11T14:47:12.025Z,24.20
2018-05-11T14:52:15.333Z,24.70
2018-05-11T14:57:17.871Z,24.60
2018-05-11T15:02:20.374Z,24.70
2018-05-11T15:07:23.662Z,25.10
2018-05-11T15:12:26.166Z,25.30
2018-05-11T15:17:29.328Z,25.10
2018-05-11T15:22:32.800Z,25.20
2018-05-11T15:27:35.296Z,25.20
2018-05-11T15:32:37.846Z,24.90
2018-05-11T15:37:41.137Z,24.50
2018-05-11T15:42:43.766Z,24.50
2018-05-11T15:47:46.335Z,24.50
2018-05-11T15:52:49.605Z,25.20
2018-05-11T15:57:52.110Z,25.20
2018-05-11T16:02:54.637Z,25.60
2018-05-11T16:07:57.915Z,25.80
2018-05-11T16:13:00.428Z,25.80
2018-05-11T16:18:02.950Z,26.10
2018-05-11T16:23:05.468Z,25.50
2018-05-11T16:28:07.964Z,25.30
2018-05-11T16:33:10.875Z,24.90
2018-05-11T16:38:13.363Z,24.50
2018-05-11T16:43:15.854Z,24.30
2018-05-11T16:48:18.364Z,24.10
2018-05-11T16:53:20.907Z,23.80
2018-05-11T16:58:24.160Z,23.40
2018-05-11T17:03:27.462Z,23.30
2018-05-11T17:08:31.139Z,23.20
2018-05-11T17:13:34.988Z,23.00
2018-05-11T17:18:37.487Z,22.90
2018-05-11T17:23:40.000Z,23.00
2018-05-11T17:28:43.519Z,23.00
2018-05-11T17:33:46.958Z,22.80
2018-05-11T17:38:50.853Z,23.00
2018-05-11T17:43:54.353Z,23.00
2018-05-11T17:48:57.808Z,22.90
2018-05-11T17:54:00.295Z,23.00
2018-05-11T17:59:02.845Z,22.80
2018-05-11T18:04:05.356Z,22.50
2018-05-11T18:09:14.522Z,22.30
2018-05-11T18:14:17.011Z,22.10
2018-05-11T18:19:19.803Z,22.00
2018-05-11T18:24:22.784Z,21.90
2018-05-11T18:29:25.560Z,21.80
2018-05-11T18:34:28.050Z,21.60
2018-05-11T18:39:38.191Z,21.40
2018-05-11T18:44:40.633Z,21.30
2018-05-11T18:49:44.232Z,21.10
2018-05-11T18:54:47.485Z,20.60
2018-05-11T18:59:49.989Z,20.60
2018-05-11T19:04:54.183Z,20.10
2018-05-11T19:09:57.578Z,20.00
2018-05-11T19:15:06.158Z,19.80
2018-05-11T19:20:08.654Z,19.40
2018-05-11T19:25:11.229Z,19.10
2018-05-11T19:30:13.733Z,18.80
2018-05-11T19:35:16.234Z,18.70
2018-05-11T19:40:18.896Z,18.50
2018-05-11T19:45:21.488Z,18.30
2018-05-11T19:50:24.045Z,17.80
2018-05-11T19:55:26.566Z,17.40
2018-05-11T20:00:29.113Z,17.20
2018-05-11T20:05:31.631Z,16.90
2018-05-11T20:10:34.122Z,16.60
2018-05-11T20:15:41.807Z,16.50
2018-05-11T20:20:44.300Z,16.40
2018-05-11T20:25:46.864Z,16.40
2018-05-11T20:30:50.297Z,16.40
2018-05-11T20:35:52.857Z,16.40
2018-05-11T20:40:55.385Z,16.30
2018-05-11T20:46:00.573Z,16.20
2018-05-11T20:51:04.072Z,16.10
2018-05-11T20:56:07.579Z,15.90
2018-05-11T21:01:10.127Z,15.60
2018-05-11T21:06:29.823Z,15.50
2018-05-11T21:11:32.622Z,15.50
2018-05-11T21:16:35.261Z,15.30
2018-05-11T21:21:40.517Z,15.10
2018-05-11T21:26:45.042Z,15.10
2018-05-11T21:31:48.328Z,15.20
2018-05-11T21:36:53.659Z,15.00
2018-05-11T21:42:02.933Z,14.90
2018-05-11T21:47:06.364Z,14.90
2018-05-11T21:52:08.946Z,14.80
2018-05-11T21:57:14.657Z,14.70
2018-05-11T22:02:17.245Z,14.80
2018-05-11T22:07:19.996Z,14.70
2018-05-11T22:12:28.658Z,14.60
2018-05-11T22:17:53.030Z,14.60
2018-05-11T22:22:59.431Z,14.60
2018-05-11T22:28:03.010Z,14.70
2018-05-11T22:33:11.302Z,14.40
2018-05-11T22:38:21.493Z,14.00
2018-05-11T22:43:34.246Z,13.90
2018-05-11T22:48:38.845Z,14.00
2018-05-11T22:53:41.487Z,14.00
2018-05-11T22:58:44.109Z,13.80
2018-05-11T23:03:48.662Z,13.80
2018-05-11T23:08:52.069Z,13.60
2018-05-11T23:13:54.617Z,13.50
2018-05-11T23:18:57.170Z,13.50
2018-05-11T23:23:59.779Z,13.50
2018-05-11T23:29:13.455Z,13.20
2018-05-11T23:34:15.984Z,13.10
2018-05-11T23:39:18.717Z,13.00
2018-05-11T23:44:22.059Z,13.00
2018-05-11T23:49:25.009Z,13.00
2018-05-11T23:54:28.397Z,13.00
2018-05-11T23:59:32.818Z,13.10
